createdAt,value
2019-06-04T00:03:47.712Z,14.10
2019-06-04T00:08:50.077Z,14.00
2019-06-04T00:13:59.226Z,13.80
2019-06-04T00:19:03.744Z,13.70
2019-06-04T00:24:05.009Z,13.50
2019-06-04T00:29:12.534Z,13.40
2019-06-04T00:39:56.499Z,13.30
2019-06-04T00:45:06.522Z,13.20
2019-06-04T00:50:10.921Z,13.10
2019-06-04T00:55:28.600Z,13.00
2019-06-04T01:00:32.781Z,13.00
2019-06-04T01:05:36.183Z,12.90
2019-06-04T01:10:48.438Z,12.70
2019-06-04T01:15:53.157Z,12.70
2019-06-04T01:21:07.116Z,12.60
2019-06-04T01:26:09.707Z,12.50
2019-06-04T01:31:14.276Z,12.50
2019-06-04T01:36:16.805Z,12.40
2019-06-04T01:41:29.492Z,12.30
2019-06-04T01:46:34.061Z,12.30
2019-06-04T01:51:38.611Z,12.30
2019-06-04T01:56:43.126Z,12.40
2019-06-04T02:01:46.529Z,12.40
2019-06-04T02:07:11.982Z,12.40
2019-06-04T02:12:18.076Z,12.40
2019-06-04T02:17:22.501Z,12.50
2019-06-04T02:22:27.101Z,12.50
2019-06-04T02:27:36.520Z,12.40
2019-06-04T02:33:04.098Z,12.40
2019-06-04T02:37:47.115Z,12.20
2019-06-04T02:42:48.416Z,12.20
2019-06-04T02:48:09.442Z,12.30
2019-06-04T02:53:14.098Z,12.40
2019-06-04T02:58:23.872Z,12.50
2019-06-04T03:03:31.064Z,12.50
2019-06-04T03:08:35.634Z,12.50
2019-06-04T03:13:37.087Z,12.50
2019-06-04T03:18:38.534Z,12.50
2019-06-04T03:23:42.096Z,12.60
2019-06-04T03:28:44.539Z,12.70
2019-06-04T03:33:57.929Z,12.80
2019-06-04T03:39:06.013Z,12.90
2019-06-04T03:44:08.107Z,12.90
2019-06-04T03:49:12.562Z,13.00
2019-06-04T03:54:20.869Z,13.00
2019-06-04T03:59:22.540Z,13.00
2019-06-04T04:04:24.586Z,12.90
2019-06-04T04:09:41.167Z,12.70
2019-06-04T04:14:45.674Z,12.70
2019-06-04T04:19:52.670Z,12.80
2019-06-04T04:24:57.232Z,12.90
2019-06-04T04:30:02.217Z,13.10
2019-06-04T04:35:32.483Z,13.30
2019-06-04T04:40:33.916Z,13.40
2019-06-04T04:45:35.214Z,13.50
2019-06-04T04:50:58.195Z,13.60
2019-06-04T04:56:13.663Z,13.70
2019-06-04T05:01:18.158Z,14.00
2019-06-04T05:06:20.861Z,14.30
2019-06-04T05:11:26.414Z,14.70
2019-06-04T05:16:29.835Z,14.80
2019-06-04T05:21:54.582Z,14.90
2019-06-04T05:27:01.792Z,15.10
2019-06-04T05:32:04.320Z,15.40
2019-06-04T05:37:05.625Z,15.50
2019-06-04T05:42:10.205Z,15.80
2019-06-04T05:47:14.692Z,16.40
2019-06-04T05:52:59.863Z,16.90
2019-06-04T05:58:07.297Z,17.30
2019-06-04T06:03:29.187Z,17.60
2019-06-04T06:08:40.727Z,18.00
2019-06-04T06:13:49.985Z,18.40
2019-06-04T06:18:54.489Z,18.50
2019-06-04T06:23:58.979Z,18.70
2019-06-04T06:29:04.186Z,18.60
2019-06-04T06:34:37.781Z,18.60
2019-06-04T06:39:38.122Z,18.90
2019-06-04T06:44:39.353Z,19.30
2019-06-04T06:49:42.579Z,19.70
2019-06-04T06:54:49.730Z,20.10
2019-06-04T07:00:11.644Z,20.70
2019-06-04T07:05:16.175Z,21.00
2019-06-04T07:10:26.206Z,20.90
2019-06-04T07:15:55.806Z,21.00
2019-06-04T07:20:57.156Z,21.30
2019-06-04T07:26:04.434Z,21.80
2019-06-04T07:31:06.911Z,21.90
2019-06-04T07:36:24.826Z,22.10
2019-06-04T07:41:26.316Z,22.40
2019-06-04T07:46:31.228Z,22.10
2019-06-04T07:51:33.820Z,22.30
2019-06-04T07:56:57.026Z,22.80
2019-06-04T08:02:08.123Z,23.40
2019-06-04T08:07:09.711Z,24.20
2019-06-04T08:12:12.076Z,24.20
2019-06-04T08:17:16.568Z,23.40
2019-06-04T08:22:38.207Z,22.80
2019-06-04T08:27:42.851Z,22.40
2019-06-04T08:32:50.283Z,22.00
2019-06-04T08:37:51.991Z,21.60
2019-06-04T08:42:56.492Z,21.20
2019-06-04T08:48:01.046Z,20.90
2019-06-04T08:53:04.352Z,20.90
2019-06-04T08:58:26.006Z,20.90
2019-06-04T09:03:30.641Z,21.00
2019-06-04T09:08:32.130Z,21.30
2019-06-04T09:13:41.115Z,21.20
2019-06-04T09:19:05.008Z,21.10
2019-06-04T09:24:08.490Z,21.10
2019-06-04T09:29:13.077Z,21.20
2019-06-04T09:34:17.535Z,21.60
2019-06-04T09:39:22.078Z,21.90
2019-06-04T09:45:23.324Z,21.80
2019-06-04T09:50:24.780Z,21.90
2019-06-04T09:55:29.203Z,22.10
2019-06-04T10:00:41.050Z,22.20
2019-06-04T10:05:59.436Z,22.10
2019-06-04T10:11:00.847Z,22.00
2019-06-04T10:16:09.123Z,21.90
2019-06-04T10:21:13.658Z,21.80
2019-06-04T10:26:24.522Z,22.10
2019-06-04T10:31:27.423Z,22.60
2019-06-04T10:36:35.904Z,23.20
2019-06-04T10:41:40.419Z,24.10
2019-06-04T10:46:41.787Z,23.90
2019-06-04T10:52:03.632Z,23.40
2019-06-04T10:57:35.989Z,23.00
2019-06-04T11:02:37.263Z,22.90
2019-06-04T11:07:41.820Z,23.40
2019-06-04T11:12:47.429Z,23.90
2019-06-04T11:18:07.037Z,24.00
2019-06-04T11:23:29.897Z,24.40
2019-06-04T11:28:32.376Z,24.80
2019-06-04T11:33:39.415Z,25.00
2019-06-04T11:38:43.956Z,25.30
2019-06-04T11:43:51.178Z,25.10
2019-06-04T11:48:57.421Z,25.10
2019-06-04T11:54:03.351Z,25.00
2019-06-04T11:59:08.119Z,24.90
2019-06-04T12:04:32.306Z,25.80
2019-06-04T12:09:44.809Z,26.60
2019-06-04T12:14:49.351Z,27.40
2019-06-04T12:20:04.509Z,27.50
2019-06-04T12:25:09.121Z,27.60
2019-06-04T12:30:41.240Z,27.70
2019-06-04T12:35:51.843Z,27.70
2019-06-04T12:40:56.848Z,28.40
2019-06-04T12:46:04.734Z,28.60
2019-06-04T12:51:07.926Z,28.80
2019-06-04T12:56:23.459Z,28.50
2019-06-04T13:01:30.678Z,28.40
2019-06-04T13:06:37.940Z,28.50
2019-06-04T13:11:46.052Z,29.00
2019-06-04T13:16:47.884Z,29.00
2019-06-04T13:21:49.425Z,29.20
2019-06-04T13:26:56.726Z,29.70
2019-06-04T13:31:59.882Z,29.60
2019-06-04T13:37:13.599Z,29.60
2019-06-04T13:42:26.490Z,29.30
2019-06-04T13:47:27.754Z,29.00
2019-06-04T13:52:35.089Z,29.20
2019-06-04T13:57:42.340Z,29.40
2019-06-04T14:02:43.744Z,29.70
2019-06-04T14:07:48.259Z,30.10
2019-06-04T14:12:51.606Z,30.20
2019-06-04T14:17:58.711Z,30.40
2019-06-04T14:23:10.450Z,30.50
2019-06-04T14:28:12.017Z,30.50
2019-06-04T14:33:26.065Z,30.60
2019-06-04T14:38:30.585Z,30.70
2019-06-04T14:43:31.824Z,30.30
2019-06-04T14:48:33.093Z,30.30
2019-06-04T14:53:40.291Z,30.20
2019-06-04T14:58:43.831Z,29.90
2019-06-04T15:03:48.337Z,29.70
2019-06-04T15:08:52.989Z,29.50
2019-06-04T15:13:54.257Z,28.80
2019-06-04T15:19:07.533Z,28.30
2019-06-04T15:24:08.976Z,27.70
2019-06-04T15:29:13.538Z,27.60
2019-06-04T15:34:43.001Z,29.00
2019-06-04T15:39:50.243Z,30.20
2019-06-04T15:44:51.724Z,31.00
2019-06-04T15:49:54.109Z,31.30
2019-06-04T15:54:55.372Z,30.30
2019-06-04T15:59:57.719Z,30.40
2019-06-04T16:04:59.153Z,30.40
2019-06-04T16:10:03.179Z,30.10
2019-06-04T16:15:05.241Z,30.10
2019-06-04T16:20:17.589Z,30.30
2019-06-04T16:25:20.106Z,30.30
2019-06-04T16:30:33.591Z,30.10
2019-06-04T16:35:35.409Z,29.90
2019-06-04T16:40:37.504Z,29.80
2019-06-04T16:45:38.965Z,29.60
2019-06-04T16:50:40.479Z,29.40
2019-06-04T16:55:43.201Z,29.30
2019-06-04T17:00:44.538Z,29.30
2019-06-04T17:05:47.944Z,29.40
2019-06-04T17:10:55.725Z,29.40
2019-06-04T17:15:59.084Z,29.30
2019-06-04T17:21:00.586Z,29.00
2019-06-04T17:26:06.853Z,28.60
2019-06-04T17:31:07.192Z,28.20
2019-06-04T17:36:08.423Z,27.70
2019-06-04T17:41:09.826Z,27.30
2019-06-04T17:46:11.291Z,27.00
2019-06-04T17:51:12.771Z,26.70
2019-06-04T17:56:13.948Z,26.60
2019-06-04T18:01:15.407Z,26.40
2019-06-04T18:06:16.891Z,26.30
2019-06-04T18:11:18.331Z,26.20
2019-06-04T18:16:19.548Z,26.00
2019-06-04T18:21:21.316Z,25.90
2019-06-04T18:26:22.555Z,25.70
2019-06-04T18:31:23.932Z,25.60
2019-06-04T18:36:25.435Z,25.50
2019-06-04T18:41:28.038Z,25.40
2019-06-04T18:46:30.675Z,25.30
2019-06-04T18:51:33.331Z,25.10
2019-06-04T18:56:36.001Z,25.00
2019-06-04T19:01:38.667Z,24.90
2019-06-04T19:06:41.221Z,23.20
2019-06-04T19:11:42.824Z,21.20
2019-06-04T19:16:54.408Z,20.30
2019-06-04T19:21:55.685Z,19.80
2019-06-04T19:26:57.071Z,19.40
2019-06-04T19:32:04.701Z,19.20
2019-06-04T19:37:05.931Z,19.00
2019-06-04T19:42:16.532Z,18.90
2019-06-04T19:53:12.959Z,19.00
2019-06-04T19:58:17.465Z,18.90
2019-06-04T20:03:27.815Z,18.80
2019-06-04T20:08:32.369Z,18.70
2019-06-04T20:13:41.563Z,18.60
2019-06-04T20:18:42.636Z,18.60
2019-06-04T20:23:48.945Z,18.50
2019-06-04T20:28:58.435Z,18.60
2019-06-04T20:34:00.617Z,18.50
2019-06-04T20:39:03.573Z,18.50
2019-06-04T20:44:05.113Z,18.50
2019-06-04T20:49:26.112Z,18.40
2019-06-04T20:54:09.902Z,18.40
2019-06-04T20:59:13.205Z,18.40
2019-06-04T21:04:15.580Z,18.40
2019-06-04T21:09:16.763Z,18.40
2019-06-04T21:14:39.897Z,18.40
2019-06-04T21:19:42.100Z,18.40
2019-06-04T21:24:43.365Z,18.40
2019-06-04T21:29:45.488Z,18.40
2019-06-04T21:34:47.169Z,18.40
2019-06-04T21:39:57.836Z,18.40
2019-06-04T21:45:20.990Z,18.40
2019-06-04T21:50:22.252Z,18.40
2019-06-04T21:55:23.528Z,18.30
2019-06-04T22:00:45.343Z,18.10
2019-06-04T22:05:53.951Z,18.00
2019-06-04T22:10:58.568Z,17.90
2019-06-04T22:16:10.688Z,17.80
2019-06-04T22:21:09.637Z,17.60
2019-06-04T22:26:10.955Z,17.50
2019-06-04T22:31:20.442Z,17.30
2019-06-04T22:36:23.939Z,17.00
2019-06-04T22:41:25.220Z,16.90
2019-06-04T22:46:41.736Z,16.80
2019-06-04T22:51:42.898Z,16.70
2019-06-04T22:56:53.342Z,16.60
2019-06-04T23:01:56.133Z,16.50
2019-06-04T23:07:17.143Z,16.40
2019-06-04T23:12:21.724Z,16.40
2019-06-04T23:17:28.780Z,16.40
2019-06-04T23:22:31.339Z,16.30
2019-06-04T23:27:35.884Z,16.30
2019-06-04T23:32:37.064Z,16.20
2019-06-04T23:37:38.542Z,16.20
2019-06-04T23:42:47.063Z,16.10
2019-06-04T23:47:51.608Z,16.10
2019-06-04T23:53:25.809Z,16.10
2019-06-04T23:58:56.169Z,16.00
